createdAt,value
2018-09-27T00:01:11.799Z,101206.00
2018-09-27T00:03:42.740Z,101200.00
2018-09-27T00:06:14.042Z,101203.00
2018-09-27T00:08:45.020Z,101206.00
2018-09-27T00:11:16.051Z,101210.00
2018-09-27T00:13:49.962Z,101211.00
2018-09-27T00:16:21.150Z,101208.00
2018-09-27T00:18:52.169Z,101212.00
2018-09-27T00:21:23.269Z,101206.00
2018-09-27T00:23:53.954Z,101204.00
2018-09-27T00:26:24.962Z,101202.00
2018-09-27T00:28:56.028Z,101200.00
2018-09-27T00:31:26.985Z,101195.00
2018-09-27T00:33:57.693Z,101195.00
2018-09-27T00:36:28.669Z,101193.00
2018-09-27T00:39:00.002Z,101187.00
2018-09-27T00:41:30.939Z,101184.00
2018-09-27T00:44:02.739Z,101180.00
2018-09-27T00:46:33.863Z,101175.00
2018-09-27T00:49:04.868Z,101177.00
2018-09-27T00:51:35.846Z,101176.00
2018-09-27T00:54:07.336Z,101172.00
2018-09-27T00:56:39.341Z,101177.00
2018-09-27T00:59:10.099Z,101172.00
2018-09-27T01:01:41.519Z,101177.00
2018-09-27T01:04:12.665Z,101169.00
2018-09-27T01:06:44.668Z,101172.00
2018-09-27T01:09:15.464Z,101165.00
2018-09-27T01:11:46.526Z,101164.00
2018-09-27T01:14:17.447Z,101161.00
2018-09-27T01:16:48.259Z,101161.00
2018-09-27T01:19:19.294Z,101162.00
2018-09-27T01:21:51.265Z,101147.00
2018-09-27T01:24:21.962Z,101149.00
2018-09-27T01:26:52.970Z,101142.00
2018-09-27T01:29:24.175Z,101137.00
2018-09-27T01:31:55.702Z,101139.00
2018-09-27T01:34:27.314Z,101142.00
2018-09-27T01:36:58.893Z,101139.00
2018-09-27T01:39:32.001Z,101139.00
2018-09-27T01:42:02.714Z,101134.00
2018-09-27T01:44:33.944Z,101133.00
2018-09-27T01:47:04.662Z,101133.00
2018-09-27T01:49:36.357Z,101130.00
2018-09-27T01:52:08.046Z,101130.00
2018-09-27T01:54:38.873Z,101132.00
2018-09-27T01:57:10.286Z,101128.00
2018-09-27T01:59:41.437Z,101132.00
2018-09-27T02:02:12.439Z,101132.00
2018-09-27T02:04:43.526Z,101131.00
2018-09-27T02:07:14.454Z,101129.00
2018-09-27T02:09:45.428Z,101130.00
2018-09-27T02:12:16.498Z,101127.00
2018-09-27T02:14:47.249Z,101125.00
2018-09-27T02:17:19.144Z,101120.00
2018-09-27T02:19:50.610Z,101119.00
2018-09-27T02:22:21.585Z,101121.00
2018-09-27T02:24:53.550Z,101109.00
2018-09-27T02:27:25.777Z,101105.00
2018-09-27T02:29:56.682Z,101106.00
2018-09-27T02:32:27.729Z,101094.00
2018-09-27T02:34:58.779Z,101092.00
2018-09-27T02:37:30.314Z,101095.00
2018-09-27T02:40:01.083Z,101096.00
2018-09-27T02:42:32.634Z,101086.00
2018-09-27T02:45:06.919Z,101083.00
2018-09-27T02:47:37.626Z,101092.00
2018-09-27T02:50:08.285Z,101093.00
2018-09-27T02:52:39.118Z,101086.00
2018-09-27T02:55:10.039Z,101095.00
2018-09-27T02:57:40.789Z,101096.00
2018-09-27T03:00:11.464Z,101094.00
2018-09-27T03:02:42.220Z,101092.00
2018-09-27T03:05:13.208Z,101095.00
2018-09-27T03:07:43.884Z,101094.00
2018-09-27T03:10:14.827Z,101096.00
2018-09-27T03:12:46.109Z,101096.00
2018-09-27T03:15:16.844Z,101097.00
2018-09-27T03:17:47.830Z,101087.00
2018-09-27T03:20:18.750Z,101083.00
2018-09-27T03:22:49.692Z,101089.00
2018-09-27T03:25:20.683Z,101081.00
2018-09-27T03:27:51.443Z,101080.00
2018-09-27T03:30:22.623Z,101081.00
2018-09-27T03:32:53.914Z,101072.00
2018-09-27T03:35:25.273Z,101075.00
2018-09-27T03:37:56.627Z,101080.00
2018-09-27T03:40:27.600Z,101077.00
2018-09-27T03:42:58.551Z,101081.00
2018-09-27T03:45:29.491Z,101089.00
2018-09-27T03:48:00.597Z,101092.00
2018-09-27T03:50:31.618Z,101085.00
2018-09-27T03:53:02.333Z,101076.00
2018-09-27T03:55:33.149Z,101071.00
2018-09-27T03:58:04.229Z,101071.00
2018-09-27T04:00:35.362Z,101061.00
2018-09-27T04:03:06.077Z,101065.00
2018-09-27T04:05:37.308Z,101064.00
2018-09-27T04:08:08.813Z,101046.00
2018-09-27T04:10:41.283Z,101049.00
2018-09-27T04:13:11.878Z,101054.00
2018-09-27T04:15:42.866Z,101053.00
2018-09-27T04:18:13.952Z,101055.00
2018-09-27T04:20:51.708Z,101052.00
2018-09-27T04:23:23.470Z,101057.00
2018-09-27T04:25:54.579Z,101062.00
2018-09-27T04:28:25.917Z,101057.00
2018-09-27T04:30:57.205Z,101057.00
2018-09-27T04:33:27.847Z,101057.00
2018-09-27T04:35:58.928Z,101058.00
2018-09-27T04:38:29.680Z,101059.00
2018-09-27T04:41:00.584Z,101057.00
2018-09-27T04:43:31.602Z,101058.00
2018-09-27T04:46:04.032Z,101056.00
2018-09-27T04:48:35.775Z,101059.00
2018-09-27T04:51:07.359Z,101058.00
2018-09-27T04:53:39.393Z,101052.00
2018-09-27T04:56:12.581Z,101051.00
2018-09-27T04:58:44.160Z,101057.00
2018-09-27T05:01:15.712Z,101054.00
2018-09-27T05:03:47.166Z,101053.00
2018-09-27T05:06:18.622Z,101052.00
2018-09-27T05:08:50.387Z,101052.00
2018-09-27T05:11:22.346Z,101053.00
2018-09-27T05:13:53.492Z,101049.00
2018-09-27T05:16:24.490Z,101046.00
2018-09-27T05:18:55.552Z,101041.00
2018-09-27T05:21:27.536Z,101041.00
2018-09-27T05:24:03.477Z,101039.00
2018-09-27T05:26:42.034Z,101037.00
2018-09-27T05:29:18.205Z,101037.00
2018-09-27T05:31:53.997Z,101041.00
2018-09-27T05:34:30.978Z,101039.00
2018-09-27T05:37:06.299Z,101035.00
2018-09-27T05:39:51.345Z,101038.00
2018-09-27T05:42:24.515Z,101043.00
2018-09-27T05:44:55.590Z,101044.00
2018-09-27T05:47:26.581Z,101045.00
2018-09-27T05:49:57.663Z,101050.00
2018-09-27T05:52:28.851Z,101052.00
2018-09-27T05:55:01.001Z,101049.00
2018-09-27T05:57:31.982Z,101050.00
2018-09-27T06:00:02.730Z,101044.00
2018-09-27T06:02:33.599Z,101040.00
2018-09-27T06:05:05.098Z,101047.00
2018-09-27T06:07:36.201Z,101041.00
2018-09-27T06:10:07.445Z,101042.00
2018-09-27T06:12:38.326Z,101032.00
2018-09-27T06:15:09.631Z,101033.00
2018-09-27T06:17:40.758Z,101039.00
2018-09-27T06:20:11.543Z,101033.00
2018-09-27T06:22:49.103Z,101045.00
2018-09-27T06:25:22.054Z,101039.00
2018-09-27T06:27:54.447Z,101039.00
2018-09-27T06:30:25.195Z,101036.00
2018-09-27T06:32:56.112Z,101033.00
2018-09-27T06:35:26.695Z,101032.00
2018-09-27T06:37:57.626Z,101030.00
2018-09-27T06:40:29.534Z,101032.00
2018-09-27T06:43:00.092Z,101027.00
2018-09-27T06:45:31.171Z,101026.00
2018-09-27T06:48:02.087Z,101027.00
2018-09-27T06:50:33.310Z,101024.00
2018-09-27T06:53:04.786Z,101025.00
2018-09-27T06:55:35.733Z,101022.00
2018-09-27T06:58:06.724Z,101021.00
2018-09-27T07:00:37.798Z,101015.00
2018-09-27T07:03:08.704Z,101017.00
2018-09-27T07:05:39.522Z,101016.00
2018-09-27T07:08:10.169Z,101015.00
2018-09-27T07:10:40.984Z,101010.00
2018-09-27T07:13:12.018Z,101000.00
2018-09-27T07:15:42.823Z,100999.00
2018-09-27T07:18:13.533Z,100998.00
2018-09-27T07:20:44.138Z,100996.00
2018-09-27T07:23:16.173Z,100995.00
2018-09-27T07:25:47.382Z,100993.00
2018-09-27T07:28:18.202Z,100987.00
2018-09-27T07:30:48.794Z,100987.00
2018-09-27T07:33:19.958Z,100990.00
2018-09-27T07:35:50.563Z,100991.00
2018-09-27T07:38:21.490Z,100990.00
2018-09-27T07:40:52.675Z,100991.00
2018-09-27T07:43:23.250Z,100990.00
2018-09-27T07:45:54.163Z,100990.00
2018-09-27T07:48:25.912Z,100984.00
2018-09-27T07:51:00.476Z,100979.00
2018-09-27T07:53:31.511Z,100978.00
2018-09-27T07:56:02.328Z,100980.00
2018-09-27T07:58:33.336Z,100973.00
2018-09-27T08:01:03.842Z,100974.00
2018-09-27T08:03:35.488Z,100972.00
2018-09-27T08:06:06.083Z,100973.00
2018-09-27T08:08:37.258Z,100972.00
2018-09-27T08:11:08.664Z,100967.00
2018-09-27T08:13:40.006Z,100964.00
2018-09-27T08:16:10.630Z,100967.00
2018-09-27T08:18:41.576Z,100966.00
2018-09-27T08:21:12.556Z,100959.00
2018-09-27T08:23:43.314Z,100957.00
2018-09-27T08:26:14.791Z,100955.00
2018-09-27T08:28:46.503Z,100956.00
2018-09-27T08:31:17.414Z,100945.00
2018-09-27T08:33:48.609Z,100940.00
2018-09-27T08:36:19.571Z,100938.00
2018-09-27T08:38:50.335Z,100940.00
2018-09-27T08:41:21.406Z,100936.00
2018-09-27T08:43:52.605Z,100935.00
2018-09-27T08:46:23.105Z,100936.00
2018-09-27T08:48:54.575Z,100934.00
2018-09-27T08:51:25.375Z,100932.00
2018-09-27T08:53:57.563Z,100923.00
2018-09-27T08:56:28.665Z,100924.00
2018-09-27T08:58:59.652Z,100922.00
2018-09-27T09:01:30.497Z,100922.00
2018-09-27T09:04:01.678Z,100913.00
2018-09-27T09:06:32.476Z,100909.00
2018-09-27T09:09:04.069Z,100913.00
2018-09-27T09:11:34.709Z,100910.00
2018-09-27T09:14:05.814Z,100911.00
2018-09-27T09:16:36.846Z,100909.00
2018-09-27T09:19:07.797Z,100909.00
2018-09-27T09:21:38.875Z,100903.00
2018-09-27T09:24:09.667Z,100898.00
2018-09-27T09:26:40.293Z,100892.00
2018-09-27T09:29:11.338Z,100890.00
2018-09-27T09:31:42.193Z,100883.00
2018-09-27T09:34:13.379Z,100875.00
2018-09-27T09:36:44.467Z,100873.00
2018-09-27T09:39:15.353Z,100873.00
2018-09-27T09:41:46.814Z,100868.00
2018-09-27T09:44:17.597Z,100864.00
2018-09-27T09:46:48.579Z,100867.00
2018-09-27T09:49:23.287Z,100863.00
2018-09-27T09:51:54.263Z,100860.00
2018-09-27T09:54:25.334Z,100858.00
2018-09-27T09:56:56.136Z,100852.00
2018-09-27T09:59:26.655Z,100848.00
2018-09-27T10:01:57.579Z,100842.00
2018-09-27T10:04:28.240Z,100840.00
2018-09-27T10:06:58.917Z,100837.00
2018-09-27T10:09:30.266Z,100835.00
2018-09-27T10:12:01.091Z,100835.00
2018-09-27T10:14:31.889Z,100832.00
2018-09-27T10:17:02.567Z,100832.00
2018-09-27T10:19:33.418Z,100820.00
2018-09-27T10:22:04.130Z,100818.00
2018-09-27T10:24:35.122Z,100813.00
2018-09-27T10:27:06.011Z,100811.00
2018-09-27T10:29:36.496Z,100809.00
2018-09-27T10:32:07.218Z,100813.00
2018-09-27T10:34:37.759Z,100810.00
2018-09-27T10:37:08.742Z,100807.00
2018-09-27T10:39:39.267Z,100812.00
2018-09-27T10:42:10.054Z,100800.00
2018-09-27T10:44:40.521Z,100794.00
2018-09-27T10:47:11.397Z,100797.00
2018-09-27T10:49:42.375Z,100793.00
2018-09-27T10:52:13.121Z,100791.00
2018-09-27T10:54:43.595Z,100789.00
2018-09-27T10:57:14.153Z,100788.00
2018-09-27T10:59:45.128Z,100785.00
2018-09-27T11:02:15.922Z,100785.00
2018-09-27T11:04:47.090Z,100780.00
2018-09-27T11:07:17.917Z,100781.00
2018-09-27T11:09:48.694Z,100779.00
2018-09-27T11:12:19.489Z,100768.00
2018-09-27T11:14:50.248Z,100762.00
2018-09-27T11:17:21.095Z,100761.00
2018-09-27T11:19:51.863Z,100754.00
2018-09-27T11:22:22.466Z,100749.00
2018-09-27T11:24:52.958Z,100748.00
2018-09-27T11:27:23.747Z,100745.00
2018-09-27T11:29:59.883Z,100743.00
2018-09-27T11:32:32.450Z,100739.00
2018-09-27T11:35:03.247Z,100735.00
2018-09-27T11:37:34.436Z,100736.00
2018-09-27T11:40:12.279Z,100731.00
2018-09-27T11:42:46.084Z,100724.00
2018-09-27T11:45:17.948Z,100725.00
2018-09-27T11:47:49.101Z,100713.00
2018-09-27T11:50:22.361Z,100708.00
2018-09-27T11:52:53.933Z,100707.00
2018-09-27T11:55:25.141Z,100702.00
2018-09-27T11:57:57.556Z,100692.00
2018-09-27T12:00:28.471Z,100688.00
2018-09-27T12:02:59.719Z,100684.00
2018-09-27T12:05:30.507Z,100685.00
2018-09-27T12:08:01.315Z,100676.00
2018-09-27T12:10:32.104Z,100670.00
2018-09-27T12:13:03.712Z,100668.00
2018-09-27T12:15:34.167Z,100666.00
2018-09-27T12:18:05.281Z,100659.00
2018-09-27T12:20:36.221Z,100655.00
2018-09-27T12:23:07.251Z,100654.00
2018-09-27T12:25:38.272Z,100648.00
2018-09-27T12:28:09.134Z,100645.00
2018-09-27T12:30:39.996Z,100639.00
2018-09-27T12:33:10.890Z,100636.00
2018-09-27T12:35:41.696Z,100629.00
2018-09-27T12:38:12.424Z,100626.00
2018-09-27T12:40:43.220Z,100621.00
2018-09-27T12:43:13.971Z,100619.00
2018-09-27T12:45:44.692Z,100618.00
2018-09-27T12:48:15.486Z,100612.00
2018-09-27T12:50:46.367Z,100608.00
2018-09-27T12:53:17.365Z,100604.00
2018-09-27T12:55:48.071Z,100597.00
2018-09-27T12:58:18.999Z,100595.00
2018-09-27T13:00:49.682Z,100587.00
2018-09-27T13:03:20.836Z,100587.00
2018-09-27T13:05:51.738Z,100584.00
2018-09-27T13:08:22.430Z,100581.00
2018-09-27T13:10:53.286Z,100571.00
2018-09-27T13:13:24.171Z,100566.00
2018-09-27T13:15:55.258Z,100561.00
2018-09-27T13:18:26.144Z,100551.00
2018-09-27T13:20:57.070Z,100547.00
2018-09-27T13:23:28.036Z,100536.00
2018-09-27T13:25:58.814Z,100527.00
2018-09-27T13:28:29.673Z,100518.00
2018-09-27T13:31:00.739Z,100514.00
2018-09-27T13:33:32.039Z,100511.00
2018-09-27T13:36:03.356Z,100508.00
2018-09-27T13:38:34.289Z,100501.00
2018-09-27T13:41:05.247Z,100501.00
2018-09-27T13:43:35.910Z,100495.00
2018-09-27T13:46:06.654Z,100490.00
2018-09-27T13:48:37.353Z,100483.00
2018-09-27T13:51:07.977Z,100482.00
2018-09-27T13:53:38.855Z,100477.00
2018-09-27T13:56:09.494Z,100473.00
2018-09-27T13:58:40.426Z,100473.00
2018-09-27T14:01:11.198Z,100465.00
2018-09-27T14:03:41.842Z,100461.00
2018-09-27T14:06:12.463Z,100464.00
2018-09-27T14:08:43.202Z,100464.00
2018-09-27T14:11:13.836Z,100462.00
2018-09-27T14:13:44.613Z,100458.00
2018-09-27T14:16:15.445Z,100452.00
2018-09-27T14:18:46.229Z,100450.00
2018-09-27T14:21:16.905Z,100443.00
2018-09-27T14:23:47.747Z,100440.00
2018-09-27T14:26:18.365Z,100435.00
2018-09-27T14:28:49.038Z,100432.00
2018-09-27T14:31:19.702Z,100426.00
2018-09-27T14:33:50.333Z,100424.00
2018-09-27T14:36:21.030Z,100417.00
2018-09-27T14:38:51.713Z,100408.00
2018-09-27T14:41:22.455Z,100405.00
2018-09-27T14:43:53.271Z,100392.00
2018-09-27T14:46:25.298Z,100392.00
2018-09-27T14:48:55.903Z,100386.00
2018-09-27T14:51:26.554Z,100385.00
2018-09-27T14:53:57.476Z,100381.00
2018-09-27T14:56:28.164Z,100376.00
2018-09-27T14:58:58.846Z,100371.00
2018-09-27T15:01:29.533Z,100370.00
2018-09-27T15:04:00.642Z,100367.00
2018-09-27T15:06:31.337Z,100373.00
2018-09-27T15:09:02.146Z,100374.00
2018-09-27T15:11:32.774Z,100368.00
2018-09-27T15:14:03.506Z,100368.00
2018-09-27T15:16:34.320Z,100367.00
2018-09-27T15:19:05.182Z,100362.00
2018-09-27T15:21:35.996Z,100354.00
2018-09-27T15:24:06.969Z,100356.00
2018-09-27T15:26:37.783Z,100350.00
2018-09-27T15:29:08.579Z,100347.00
2018-09-27T15:31:39.199Z,100350.00
2018-09-27T15:34:09.886Z,100343.00
2018-09-27T15:36:40.560Z,100340.00
2018-09-27T15:39:11.865Z,100342.00
2018-09-27T15:41:42.461Z,100334.00
2018-09-27T15:44:13.442Z,100338.00
2018-09-27T15:46:44.280Z,100333.00
2018-09-27T15:49:14.931Z,100333.00
2018-09-27T15:51:45.728Z,100331.00
2018-09-27T15:54:16.651Z,100331.00
2018-09-27T15:56:47.452Z,100327.00
2018-09-27T15:59:18.089Z,100325.00
2018-09-27T16:01:48.622Z,100323.00
2018-09-27T16:04:19.426Z,100318.00
2018-09-27T16:06:50.346Z,100318.00
2018-09-27T16:09:21.166Z,100320.00
2018-09-27T16:11:52.193Z,100319.00
2018-09-27T16:14:23.071Z,100314.00
2018-09-27T16:16:53.967Z,100314.00
2018-09-27T16:19:24.736Z,100310.00
2018-09-27T16:21:55.731Z,100315.00
2018-09-27T16:24:26.618Z,100309.00
2018-09-27T16:26:57.554Z,100313.00
2018-09-27T16:29:28.199Z,100307.00
2018-09-27T16:31:58.979Z,100307.00
2018-09-27T16:34:29.668Z,100304.00
2018-09-27T16:37:00.345Z,100303.00
2018-09-27T16:39:31.437Z,100302.00
2018-09-27T16:42:02.092Z,100297.00
2018-09-27T16:44:32.764Z,100296.00
2018-09-27T16:47:03.482Z,100292.00
2018-09-27T16:49:35.253Z,100292.00
2018-09-27T16:52:05.845Z,100284.00
2018-09-27T16:54:36.513Z,100286.00
2018-09-27T16:57:07.365Z,100283.00
2018-09-27T16:59:38.014Z,100280.00
2018-09-27T17:02:08.839Z,100283.00
2018-09-27T17:04:39.500Z,100284.00
2018-09-27T17:07:10.121Z,100281.00
2018-09-27T17:09:40.942Z,100275.00
2018-09-27T17:12:11.602Z,100279.00
2018-09-27T17:14:42.324Z,100275.00
2018-09-27T17:17:12.984Z,100273.00
2018-09-27T17:19:43.631Z,100273.00
2018-09-27T17:22:14.257Z,100276.00
2018-09-27T17:24:45.018Z,100275.00
2018-09-27T17:27:15.739Z,100272.00
2018-09-27T17:29:46.340Z,100270.00
2018-09-27T17:32:17.286Z,100270.00
2018-09-27T17:34:48.224Z,100271.00
2018-09-27T17:37:18.940Z,100265.00
2018-09-27T17:39:49.567Z,100269.00
2018-09-27T17:42:20.274Z,100266.00
2018-09-27T17:44:51.517Z,100266.00
2018-09-27T17:47:22.361Z,100267.00
2018-09-27T17:49:53.074Z,100269.00
2018-09-27T17:52:24.134Z,100264.00
2018-09-27T17:54:55.209Z,100268.00
2018-09-27T17:57:25.816Z,100271.00
2018-09-27T17:59:56.552Z,100271.00
2018-09-27T18:02:27.244Z,100271.00
2018-09-27T18:04:58.247Z,100272.00
2018-09-27T18:07:29.212Z,100277.00
2018-09-27T18:10:00.382Z,100277.00
2018-09-27T18:12:31.038Z,100276.00
2018-09-27T18:15:01.700Z,100273.00
2018-09-27T18:17:32.531Z,100276.00
2018-09-27T18:20:03.399Z,100274.00
2018-09-27T18:22:34.562Z,100278.00
2018-09-27T18:25:05.816Z,100277.00
2018-09-27T18:27:36.724Z,100276.00
2018-09-27T18:30:07.668Z,100278.00
2018-09-27T18:32:38.359Z,100280.00
2018-09-27T18:35:09.093Z,100287.00
2018-09-27T18:37:39.813Z,100283.00
2018-09-27T18:40:11.016Z,100282.00
2018-09-27T18:42:42.218Z,100283.00
2018-09-27T18:45:12.954Z,100278.00
2018-09-27T18:47:44.482Z,100280.00
2018-09-27T18:50:16.711Z,100279.00
2018-09-27T18:52:47.363Z,100269.00
2018-09-27T18:55:18.275Z,100264.00
2018-09-27T18:57:49.171Z,100266.00
2018-09-27T19:00:22.031Z,100260.00
2018-09-27T19:02:52.980Z,100263.00
2018-09-27T19:05:23.610Z,100256.00
2018-09-27T19:07:54.463Z,100264.00
2018-09-27T19:10:25.359Z,100261.00
2018-09-27T19:12:55.990Z,100257.00
2018-09-27T19:15:26.949Z,100258.00
2018-09-27T19:17:57.594Z,100251.00
2018-09-27T19:20:28.300Z,100252.00
2018-09-27T19:22:59.196Z,100251.00
2018-09-27T19:25:30.053Z,100252.00
2018-09-27T19:28:00.648Z,100251.00
2018-09-27T19:30:31.562Z,100247.00
2018-09-27T19:33:02.758Z,100252.00
2018-09-27T19:35:35.212Z,100250.00
2018-09-27T19:38:06.512Z,100250.00
2018-09-27T19:40:37.503Z,100244.00
2018-09-27T19:43:08.286Z,100241.00
2018-09-27T19:45:39.856Z,100247.00
2018-09-27T19:48:10.521Z,100240.00
2018-09-27T19:50:41.314Z,100244.00
2018-09-27T19:53:12.338Z,100243.00
2018-09-27T19:55:43.097Z,100244.00
2018-09-27T19:58:13.862Z,100243.00
2018-09-27T20:00:45.192Z,100241.00
2018-09-27T20:03:16.190Z,100246.00
2018-09-27T20:05:47.128Z,100247.00
2018-09-27T20:08:18.185Z,100248.00
2018-09-27T20:10:48.913Z,100242.00
2018-09-27T20:13:19.748Z,100242.00
2018-09-27T20:15:50.590Z,100250.00
2018-09-27T20:18:21.410Z,100247.00
2018-09-27T20:20:52.239Z,100246.00
2018-09-27T20:23:23.120Z,100247.00
2018-09-27T20:25:54.015Z,100245.00
2018-09-27T20:28:24.881Z,100249.00
2018-09-27T20:30:55.635Z,100244.00
2018-09-27T20:33:26.586Z,100246.00
2018-09-27T20:35:57.391Z,100249.00
2018-09-27T20:38:28.397Z,100251.00
2018-09-27T20:40:59.110Z,100243.00
2018-09-27T20:43:29.780Z,100246.00
2018-09-27T20:46:00.856Z,100245.00
2018-09-27T20:48:31.518Z,100246.00
2018-09-27T20:51:02.825Z,100251.00
2018-09-27T20:53:33.895Z,100252.00
2018-09-27T20:56:04.719Z,100247.00
2018-09-27T20:58:35.856Z,100242.00
2018-09-27T21:01:06.548Z,100237.00
2018-09-27T21:03:37.303Z,100244.00
2018-09-27T21:06:08.203Z,100249.00
2018-09-27T21:08:38.915Z,100245.00
2018-09-27T21:11:09.587Z,100239.00
2018-09-27T21:13:40.243Z,100237.00
2018-09-27T21:16:11.231Z,100241.00
2018-09-27T21:18:41.966Z,100237.00
2018-09-27T21:21:13.040Z,100234.00
2018-09-27T21:23:43.577Z,100233.00
2018-09-27T21:26:14.664Z,100233.00
2018-09-27T21:28:45.444Z,100236.00
2018-09-27T21:31:16.156Z,100235.00
2018-09-27T21:33:47.146Z,100230.00
2018-09-27T21:36:18.078Z,100225.00
2018-09-27T21:38:48.982Z,100225.00
2018-09-27T21:41:19.991Z,100226.00
2018-09-27T21:43:51.018Z,100221.00
2018-09-27T21:46:22.067Z,100222.00
2018-09-27T21:48:52.662Z,100222.00
2018-09-27T21:51:23.323Z,100222.00
2018-09-27T21:53:54.014Z,100220.00
2018-09-27T21:56:24.649Z,100218.00
2018-09-27T21:58:55.356Z,100218.00
2018-09-27T22:01:26.322Z,100220.00
2018-09-27T22:03:57.090Z,100217.00
2018-09-27T22:06:27.766Z,100208.00
2018-09-27T22:08:58.625Z,100210.00
2018-09-27T22:11:29.561Z,100209.00
2018-09-27T22:14:00.557Z,100205.00
2018-09-27T22:16:31.240Z,100211.00
2018-09-27T22:19:02.329Z,100211.00
2018-09-27T22:21:33.265Z,100205.00
2018-09-27T22:24:04.117Z,100205.00
2018-09-27T22:26:35.112Z,100205.00
2018-09-27T22:29:05.889Z,100201.00
2018-09-27T22:31:36.742Z,100202.00
2018-09-27T22:34:07.343Z,100201.00
2018-09-27T22:36:37.951Z,100197.00
2018-09-27T22:39:09.516Z,100193.00
2018-09-27T22:41:40.418Z,100195.00
2018-09-27T22:44:11.362Z,100195.00
2018-09-27T22:46:42.011Z,100187.00
2018-09-27T22:49:12.653Z,100187.00
2018-09-27T22:51:43.354Z,100194.00
2018-09-27T22:54:14.033Z,100196.00
2018-09-27T22:56:44.670Z,100191.00
2018-09-27T22:59:15.451Z,100187.00
2018-09-27T23:01:46.411Z,100181.00
2018-09-27T23:04:17.302Z,100180.00
2018-09-27T23:06:48.199Z,100178.00
2018-09-27T23:09:24.819Z,100179.00
2018-09-27T23:11:55.837Z,100177.00
2018-09-27T23:14:26.911Z,100175.00
2018-09-27T23:16:57.556Z,100171.00
2018-09-27T23:19:28.226Z,100171.00
2018-09-27T23:21:59.062Z,100172.00
2018-09-27T23:24:29.691Z,100169.00
2018-09-27T23:27:00.767Z,100168.00
2018-09-27T23:29:31.415Z,100172.00
2018-09-27T23:32:01.994Z,100172.00
2018-09-27T23:34:32.649Z,100171.00
2018-09-27T23:37:03.579Z,100173.00
2018-09-27T23:39:34.493Z,100170.00
2018-09-27T23:42:05.180Z,100169.00
2018-09-27T23:44:36.052Z,100165.00
2018-09-27T23:47:07.126Z,100167.00
2018-09-27T23:49:37.662Z,100163.00
2018-09-27T23:52:08.450Z,100159.00
2018-09-27T23:54:39.001Z,100160.00
2018-09-27T23:57:09.675Z,100164.00
2018-09-27T23:59:40.427Z,100168.00
